Terminal Aerodrome Forecast
Issued by NWS Wakefield, VA

Home | Current Version | Previous Version | Text Only | Print | Product List | Glossary On
Versions: 1 2 3 4 5 6 7 8 9 10 11 12 13 14 15 16
000
FTUS41 KAKQ 290500 RRA
TAFECG
TAF
KECG 290547Z 2906/3006 VRB03KT P6SM SCT035
     FM290900 04006KT P6SM BKN050 BKN120
     FM291600 07009KT P6SM SCT040
     FM292100 08009KT P6SM BKN040
     FM300200 09004KT P6SM BKN035=

USA.gov is the U.S. government's official web portal to all federal, state and local government web resources and services.